sensor_id;sensor_type;location;lat;lon;timestamp;P1;durP1;ratioP1;P2;durP2;ratioP2
2049;SDS011;8478;49.208;8.806;2023-06-19T00:01:46;9.60;;;8.90;;
2049;SDS011;8478;49.208;8.806;2023-06-19T00:04:12;9.03;;;8.43;;
2049;SDS011;8478;49.208;8.806;2023-06-19T00:06:38;9.33;;;8.67;;
2049;SDS011;8478;49.208;8.806;2023-06-19T00:09:04;9.77;;;8.90;;
2049;SDS011;8478;49.208;8.806;2023-06-19T00:11:30;9.03;;;8.40;;
2049;SDS011;8478;49.208;8.806;2023-06-19T00:13:56;9.63;;;8.93;;
2049;SDS011;8478;49.208;8.806;2023-06-19T00:16:21;9.10;;;8.43;;
2049;SDS011;8478;49.208;8.806;2023-06-19T00:18:50;10.23;;;9.43;;
2049;SDS011;8478;49.208;8.806;2023-06-19T00:21:16;10.27;;;9.47;;
2049;SDS011;8478;49.208;8.806;2023-06-19T00:23:42;9.17;;;8.50;;
2049;SDS011;8478;49.208;8.806;2023-06-19T00:26:08;9.70;;;8.93;;
2049;SDS011;8478;49.208;8.806;2023-06-19T00:28:33;10.03;;;9.23;;
2049;SDS011;8478;49.208;8.806;2023-06-19T00:30:59;9.77;;;9.07;;
2049;SDS011;8478;49.208;8.806;2023-06-19T00:33:25;9.00;;;8.40;;
2049;SDS011;8478;49.208;8.806;2023-06-19T00:35:51;10.50;;;9.70;;
2049;SDS011;8478;49.208;8.806;2023-06-19T00:38:17;10.07;;;9.37;;
2049;SDS011;8478;49.208;8.806;2023-06-19T00:40:43;9.80;;;9.00;;
2049;SDS011;8478;49.208;8.806;2023-06-19T00:43:08;10.00;;;9.30;;
2049;SDS011;8478;49.208;8.806;2023-06-19T00:45:35;10.70;;;10.00;;
2049;SDS011;8478;49.208;8.806;2023-06-19T00:48:01;9.23;;;8.63;;
2049;SDS011;8478;49.208;8.806;2023-06-19T00:50:27;10.27;;;9.43;;
2049;SDS011;8478;49.208;8.806;2023-06-19T00:52:58;10.43;;;9.70;;
2049;SDS011;8478;49.208;8.806;2023-06-19T00:55:25;9.00;;;8.40;;
2049;SDS011;8478;49.208;8.806;2023-06-19T00:57:54;11.17;;;10.20;;
2049;SDS011;8478;49.208;8.806;2023-06-19T01:00:20;9.40;;;8.70;;
2049;SDS011;8478;49.208;8.806;2023-06-19T01:02:46;9.60;;;9.00;;
2049;SDS011;8478;49.208;8.806;2023-06-19T01:05:12;10.17;;;9.40;;
2049;SDS011;8478;49.208;8.806;2023-06-19T01:10:25;9.70;;;9.00;;
2049;SDS011;8478;49.208;8.806;2023-06-19T01:13:06;10.90;;;9.87;;
2049;SDS011;8478;49.208;8.806;2023-06-19T01:15:37;9.43;;;8.80;;
2049;SDS011;8478;49.208;8.806;2023-06-19T01:18:05;9.90;;;9.10;;
2049;SDS011;8478;49.208;8.806;2023-06-19T01:20:31;8.77;;;8.17;;
2049;SDS011;8478;49.208;8.806;2023-06-19T01:23:04;11.27;;;10.30;;
2049;SDS011;8478;49.208;8.806;2023-06-19T01:25:34;10.93;;;10.03;;
2049;SDS011;8478;49.208;8.806;2023-06-19T01:28:00;10.57;;;9.77;;
2049;SDS011;8478;49.208;8.806;2023-06-19T01:30:31;10.20;;;9.40;;
2049;SDS011;8478;49.208;8.806;2023-06-19T01:32:58;9.37;;;8.70;;
2049;SDS011;8478;49.208;8.806;2023-06-19T01:35:30;9.90;;;9.00;;
2049;SDS011;8478;49.208;8.806;2023-06-19T01:38:00;9.50;;;8.80;;
2049;SDS011;8478;49.208;8.806;2023-06-19T01:40:26;8.90;;;8.20;;
2049;SDS011;8478;49.208;8.806;2023-06-19T01:42:56;9.83;;;8.93;;
2049;SDS011;8478;49.208;8.806;2023-06-19T01:45:24;9.33;;;8.53;;
2049;SDS011;8478;49.208;8.806;2023-06-19T01:47:50;9.10;;;8.50;;
2049;SDS011;8478;49.208;8.806;2023-06-19T01:50:15;9.60;;;8.80;;
2049;SDS011;8478;49.208;8.806;2023-06-19T01:52:41;8.77;;;8.00;;
2049;SDS011;8478;49.208;8.806;2023-06-19T01:55:07;8.97;;;8.37;;
2049;SDS011;8478;49.208;8.806;2023-06-19T01:57:34;8.47;;;7.87;;
2049;SDS011;8478;49.208;8.806;2023-06-19T02:00:01;8.97;;;8.27;;
2049;SDS011;8478;49.208;8.806;2023-06-19T02:02:29;9.20;;;8.50;;
2049;SDS011;8478;49.208;8.806;2023-06-19T02:04:55;8.97;;;8.17;;
2049;SDS011;8478;49.208;8.806;2023-06-19T02:07:20;8.90;;;8.20;;
2049;SDS011;8478;49.208;8.806;2023-06-19T02:09:46;12.53;;;8.47;;
2049;SDS011;8478;49.208;8.806;2023-06-19T02:12:12;7.97;;;7.47;;
2049;SDS011;8478;49.208;8.806;2023-06-19T02:14:38;7.23;;;6.63;;
2049;SDS011;8478;49.208;8.806;2023-06-19T02:17:04;7.77;;;7.10;;
2049;SDS011;8478;49.208;8.806;2023-06-19T02:19:29;7.77;;;7.17;;
2049;SDS011;8478;49.208;8.806;2023-06-19T02:21:55;7.67;;;7.03;;
2049;SDS011;8478;49.208;8.806;2023-06-19T02:24:21;8.07;;;7.37;;
2049;SDS011;8478;49.208;8.806;2023-06-19T02:26:46;7.67;;;7.00;;
2049;SDS011;8478;49.208;8.806;2023-06-19T02:29:12;8.00;;;7.20;;
2049;SDS011;8478;49.208;8.806;2023-06-19T02:31:37;7.83;;;7.23;;
2049;SDS011;8478;49.208;8.806;2023-06-19T02:34:03;7.63;;;6.83;;
2049;SDS011;8478;49.208;8.806;2023-06-19T02:36:29;7.10;;;6.60;;
2049;SDS011;8478;49.208;8.806;2023-06-19T02:38:55;8.13;;;7.53;;
2049;SDS011;8478;49.208;8.806;2023-06-19T02:41:21;7.90;;;7.20;;
2049;SDS011;8478;49.208;8.806;2023-06-19T02:43:46;7.13;;;6.63;;
2049;SDS011;8478;49.208;8.806;2023-06-19T02:46:12;7.33;;;6.60;;
2049;SDS011;8478;49.208;8.806;2023-06-19T02:48:38;7.73;;;6.60;;
2049;SDS011;8478;49.208;8.806;2023-06-19T02:51:03;7.53;;;6.87;;
2049;SDS011;8478;49.208;8.806;2023-06-19T02:53:29;6.80;;;6.13;;
2049;SDS011;8478;49.208;8.806;2023-06-19T02:55:55;6.20;;;5.60;;
2049;SDS011;8478;49.208;8.806;2023-06-19T02:58:20;6.43;;;5.93;;
2049;SDS011;8478;49.208;8.806;2023-06-19T03:00:46;7.00;;;6.40;;
2049;SDS011;8478;49.208;8.806;2023-06-19T03:03:13;6.13;;;5.70;;
2049;SDS011;8478;49.208;8.806;2023-06-19T03:05:39;6.57;;;6.07;;
2049;SDS011;8478;49.208;8.806;2023-06-19T03:08:04;7.10;;;5.97;;
2049;SDS011;8478;49.208;8.806;2023-06-19T03:10:30;8.70;;;5.90;;
2049;SDS011;8478;49.208;8.806;2023-06-19T03:12:56;5.63;;;5.13;;
2049;SDS011;8478;49.208;8.806;2023-06-19T03:15:23;5.57;;;5.07;;
2049;SDS011;8478;49.208;8.806;2023-06-19T03:17:52;5.83;;;5.33;;
2049;SDS011;8478;49.208;8.806;2023-06-19T03:20:18;6.70;;;5.70;;
2049;SDS011;8478;49.208;8.806;2023-06-19T03:22:45;5.50;;;4.93;;
2049;SDS011;8478;49.208;8.806;2023-06-19T03:25:11;5.70;;;5.30;;
2049;SDS011;8478;49.208;8.806;2023-06-19T03:27:37;5.63;;;5.23;;
2049;SDS011;8478;49.208;8.806;2023-06-19T03:30:03;6.67;;;4.73;;
2049;SDS011;8478;49.208;8.806;2023-06-19T03:32:33;6.03;;;5.53;;
2049;SDS011;8478;49.208;8.806;2023-06-19T03:34:59;4.63;;;4.27;;
2049;SDS011;8478;49.208;8.806;2023-06-19T03:37:26;5.03;;;4.73;;
2049;SDS011;8478;49.208;8.806;2023-06-19T03:39:52;4.87;;;4.47;;
2049;SDS011;8478;49.208;8.806;2023-06-19T03:42:17;5.97;;;5.53;;
2049;SDS011;8478;49.208;8.806;2023-06-19T03:44:43;4.67;;;4.27;;
2049;SDS011;8478;49.208;8.806;2023-06-19T03:47:09;5.03;;;4.63;;
2049;SDS011;8478;49.208;8.806;2023-06-19T03:49:34;5.00;;;4.60;;
2049;SDS011;8478;49.208;8.806;2023-06-19T03:52:00;5.00;;;4.60;;
2049;SDS011;8478;49.208;8.806;2023-06-19T03:54:26;4.80;;;4.40;;
2049;SDS011;8478;49.208;8.806;2023-06-19T03:56:52;5.20;;;4.70;;
2049;SDS011;8478;49.208;8.806;2023-06-19T03:59:18;5.30;;;4.80;;
2049;SDS011;8478;49.208;8.806;2023-06-19T04:01:43;4.60;;;4.30;;
2049;SDS011;8478;49.208;8.806;2023-06-19T04:04:09;4.50;;;4.20;;
2049;SDS011;8478;49.208;8.806;2023-06-19T04:06:35;5.37;;;4.93;;
2049;SDS011;8478;49.208;8.806;2023-06-19T04:09:00;4.80;;;4.50;;
2049;SDS011;8478;49.208;8.806;2023-06-19T04:11:26;6.93;;;5.63;;
2049;SDS011;8478;49.208;8.806;2023-06-19T04:13:52;4.77;;;4.47;;
2049;SDS011;8478;49.208;8.806;2023-06-19T04:16:17;5.33;;;5.00;;
2049;SDS011;8478;49.208;8.806;2023-06-19T04:18:43;4.97;;;4.60;;
2049;SDS011;8478;49.208;8.806;2023-06-19T04:21:09;4.30;;;4.10;;
2049;SDS011;8478;49.208;8.806;2023-06-19T04:23:34;5.10;;;4.80;;
2049;SDS011;8478;49.208;8.806;2023-06-19T04:26:00;5.50;;;5.20;;
2049;SDS011;8478;49.208;8.806;2023-06-19T04:28:27;4.93;;;4.50;;
2049;SDS011;8478;49.208;8.806;2023-06-19T04:30:52;5.43;;;5.03;;
2049;SDS011;8478;49.208;8.806;2023-06-19T04:33:28;5.43;;;5.07;;
2049;SDS011;8478;49.208;8.806;2023-06-19T04:35:54;5.70;;;5.27;;
2049;SDS011;8478;49.208;8.806;2023-06-19T04:38:20;5.53;;;5.13;;
2049;SDS011;8478;49.208;8.806;2023-06-19T04:40:49;5.10;;;4.70;;
2049;SDS011;8478;49.208;8.806;2023-06-19T04:43:16;4.90;;;4.60;;
2049;SDS011;8478;49.208;8.806;2023-06-19T04:45:42;5.07;;;4.67;;
2049;SDS011;8478;49.208;8.806;2023-06-19T04:48:07;4.97;;;4.63;;
2049;SDS011;8478;49.208;8.806;2023-06-19T04:50:33;5.20;;;4.80;;
2049;SDS011;8478;49.208;8.806;2023-06-19T04:52:59;5.30;;;4.90;;
2049;SDS011;8478;49.208;8.806;2023-06-19T04:55:25;6.07;;;5.20;;
2049;SDS011;8478;49.208;8.806;2023-06-19T04:57:50;5.33;;;5.00;;
2049;SDS011;8478;49.208;8.806;2023-06-19T05:00:16;4.90;;;4.50;;
2049;SDS011;8478;49.208;8.806;2023-06-19T05:02:44;5.87;;;5.47;;
2049;SDS011;8478;49.208;8.806;2023-06-19T05:05:12;5.43;;;5.13;;
2049;SDS011;8478;49.208;8.806;2023-06-19T05:07:38;5.40;;;5.00;;
2049;SDS011;8478;49.208;8.806;2023-06-19T05:10:04;4.83;;;4.50;;
2049;SDS011;8478;49.208;8.806;2023-06-19T05:12:30;5.43;;;5.13;;
2049;SDS011;8478;49.208;8.806;2023-06-19T05:14:55;5.27;;;4.90;;
2049;SDS011;8478;49.208;8.806;2023-06-19T05:17:21;5.10;;;4.70;;
2049;SDS011;8478;49.208;8.806;2023-06-19T05:19:47;5.40;;;5.03;;
2049;SDS011;8478;49.208;8.806;2023-06-19T05:22:13;5.03;;;4.73;;
2049;SDS011;8478;49.208;8.806;2023-06-19T05:24:39;5.50;;;5.10;;
2049;SDS011;8478;49.208;8.806;2023-06-19T05:27:04;5.80;;;5.40;;
2049;SDS011;8478;49.208;8.806;2023-06-19T05:29:31;4.80;;;4.50;;
2049;SDS011;8478;49.208;8.806;2023-06-19T05:31:57;5.23;;;4.93;;
2049;SDS011;8478;49.208;8.806;2023-06-19T05:34:23;4.90;;;4.60;;
2049;SDS011;8478;49.208;8.806;2023-06-19T05:36:48;4.90;;;4.60;;
2049;SDS011;8478;49.208;8.806;2023-06-19T05:39:14;4.30;;;4.00;;
2049;SDS011;8478;49.208;8.806;2023-06-19T05:41:41;5.20;;;4.90;;
2049;SDS011;8478;49.208;8.806;2023-06-19T05:44:06;5.33;;;5.00;;
2049;SDS011;8478;49.208;8.806;2023-06-19T05:46:32;5.13;;;4.73;;
2049;SDS011;8478;49.208;8.806;2023-06-19T05:48:57;5.00;;;4.70;;
2049;SDS011;8478;49.208;8.806;2023-06-19T05:51:23;5.37;;;4.97;;
2049;SDS011;8478;49.208;8.806;2023-06-19T05:53:49;5.10;;;4.80;;
2049;SDS011;8478;49.208;8.806;2023-06-19T05:56:15;5.40;;;5.00;;
2049;SDS011;8478;49.208;8.806;2023-06-19T05:58:41;5.27;;;4.97;;
2049;SDS011;8478;49.208;8.806;2023-06-19T06:01:07;5.40;;;5.07;;
2049;SDS011;8478;49.208;8.806;2023-06-19T06:03:32;5.17;;;4.77;;
2049;SDS011;8478;49.208;8.806;2023-06-19T06:05:58;5.10;;;4.70;;
2049;SDS011;8478;49.208;8.806;2023-06-19T06:08:31;5.67;;;5.27;;
2049;SDS011;8478;49.208;8.806;2023-06-19T06:10:57;4.83;;;4.53;;
2049;SDS011;8478;49.208;8.806;2023-06-19T06:13:23;5.07;;;4.77;;
2049;SDS011;8478;49.208;8.806;2023-06-19T06:15:49;5.80;;;5.40;;
2049;SDS011;8478;49.208;8.806;2023-06-19T06:18:15;4.80;;;4.50;;
2049;SDS011;8478;49.208;8.806;2023-06-19T06:20:41;5.30;;;4.80;;
2049;SDS011;8478;49.208;8.806;2023-06-19T06:23:07;5.00;;;4.70;;
2049;SDS011;8478;49.208;8.806;2023-06-19T06:25:32;6.00;;;5.60;;
2049;SDS011;8478;49.208;8.806;2023-06-19T06:27:58;4.80;;;4.50;;
2049;SDS011;8478;49.208;8.806;2023-06-19T06:30:24;6.07;;;5.57;;
2049;SDS011;8478;49.208;8.806;2023-06-19T06:32:50;5.30;;;4.90;;
2049;SDS011;8478;49.208;8.806;2023-06-19T06:35:16;5.70;;;5.30;;
2049;SDS011;8478;49.208;8.806;2023-06-19T06:37:41;5.43;;;5.03;;
2049;SDS011;8478;49.208;8.806;2023-06-19T06:40:09;5.60;;;5.20;;
2049;SDS011;8478;49.208;8.806;2023-06-19T06:42:36;5.50;;;5.20;;
2049;SDS011;8478;49.208;8.806;2023-06-19T06:45:02;5.53;;;5.13;;
2049;SDS011;8478;49.208;8.806;2023-06-19T06:47:29;4.80;;;4.50;;
2049;SDS011;8478;49.208;8.806;2023-06-19T06:49:54;6.03;;;5.63;;
2049;SDS011;8478;49.208;8.806;2023-06-19T06:52:20;6.00;;;5.70;;
2049;SDS011;8478;49.208;8.806;2023-06-19T06:54:46;5.40;;;5.10;;
2049;SDS011;8478;49.208;8.806;2023-06-19T06:57:11;5.40;;;5.00;;
2049;SDS011;8478;49.208;8.806;2023-06-19T06:59:37;6.17;;;5.77;;
2049;SDS011;8478;49.208;8.806;2023-06-19T07:02:03;6.63;;;5.70;;
2049;SDS011;8478;49.208;8.806;2023-06-19T07:04:28;6.10;;;5.70;;
2049;SDS011;8478;49.208;8.806;2023-06-19T07:06:54;5.73;;;5.33;;
2049;SDS011;8478;49.208;8.806;2023-06-19T07:09:20;6.30;;;5.80;;
2049;SDS011;8478;49.208;8.806;2023-06-19T07:11:48;5.57;;;5.20;;
2049;SDS011;8478;49.208;8.806;2023-06-19T07:14:14;6.13;;;5.73;;
2049;SDS011;8478;49.208;8.806;2023-06-19T07:16:43;5.93;;;5.53;;
2049;SDS011;8478;49.208;8.806;2023-06-19T07:19:10;5.93;;;5.43;;
2049;SDS011;8478;49.208;8.806;2023-06-19T07:21:36;5.57;;;5.23;;
2049;SDS011;8478;49.208;8.806;2023-06-19T07:24:03;6.07;;;5.67;;
2049;SDS011;8478;49.208;8.806;2023-06-19T07:26:29;6.17;;;5.77;;
2049;SDS011;8478;49.208;8.806;2023-06-19T07:28:55;6.27;;;5.80;;
2049;SDS011;8478;49.208;8.806;2023-06-19T07:31:21;6.10;;;5.70;;
2049;SDS011;8478;49.208;8.806;2023-06-19T07:33:46;6.20;;;5.80;;
2049;SDS011;8478;49.208;8.806;2023-06-19T07:36:12;6.93;;;6.50;;
2049;SDS011;8478;49.208;8.806;2023-06-19T07:38:39;6.13;;;5.73;;
2049;SDS011;8478;49.208;8.806;2023-06-19T07:41:06;6.40;;;6.00;;
2049;SDS011;8478;49.208;8.806;2023-06-19T07:43:33;6.93;;;6.43;;
2049;SDS011;8478;49.208;8.806;2023-06-19T07:45:59;6.10;;;5.70;;
2049;SDS011;8478;49.208;8.806;2023-06-19T07:48:25;6.37;;;5.83;;
2049;SDS011;8478;49.208;8.806;2023-06-19T07:50:50;6.07;;;5.67;;
2049;SDS011;8478;49.208;8.806;2023-06-19T07:53:16;6.47;;;6.07;;
2049;SDS011;8478;49.208;8.806;2023-06-19T07:55:41;6.47;;;5.87;;
2049;SDS011;8478;49.208;8.806;2023-06-19T07:58:07;5.90;;;5.50;;
2049;SDS011;8478;49.208;8.806;2023-06-19T08:00:33;6.30;;;5.90;;
2049;SDS011;8478;49.208;8.806;2023-06-19T08:02:59;6.17;;;5.80;;
2049;SDS011;8478;49.208;8.806;2023-06-19T08:05:24;6.37;;;5.97;;
2049;SDS011;8478;49.208;8.806;2023-06-19T08:07:50;6.23;;;5.90;;
2049;SDS011;8478;49.208;8.806;2023-06-19T08:10:16;5.30;;;5.00;;
2049;SDS011;8478;49.208;8.806;2023-06-19T08:12:42;5.47;;;5.07;;
2049;SDS011;8478;49.208;8.806;2023-06-19T08:15:09;7.07;;;6.47;;
2049;SDS011;8478;49.208;8.806;2023-06-19T08:17:41;6.37;;;5.90;;
2049;SDS011;8478;49.208;8.806;2023-06-19T08:20:07;6.37;;;5.97;;
2049;SDS011;8478;49.208;8.806;2023-06-19T08:22:33;6.50;;;6.00;;
2049;SDS011;8478;49.208;8.806;2023-06-19T08:24:59;6.23;;;5.83;;
2049;SDS011;8478;49.208;8.806;2023-06-19T08:27:25;6.43;;;6.00;;
2049;SDS011;8478;49.208;8.806;2023-06-19T08:29:51;6.87;;;6.47;;
2049;SDS011;8478;49.208;8.806;2023-06-19T08:32:16;6.03;;;5.53;;
2049;SDS011;8478;49.208;8.806;2023-06-19T08:34:42;6.97;;;6.47;;
2049;SDS011;8478;49.208;8.806;2023-06-19T08:37:08;6.67;;;6.27;;
2049;SDS011;8478;49.208;8.806;2023-06-19T08:39:34;7.20;;;6.70;;
2049;SDS011;8478;49.208;8.806;2023-06-19T08:42:07;6.73;;;6.33;;
2049;SDS011;8478;49.208;8.806;2023-06-19T08:44:34;7.13;;;6.63;;
2049;SDS011;8478;49.208;8.806;2023-06-19T08:47:01;6.10;;;5.70;;
2049;SDS011;8478;49.208;8.806;2023-06-19T08:49:33;7.30;;;6.70;;
2049;SDS011;8478;49.208;8.806;2023-06-19T08:51:59;7.30;;;6.80;;
2049;SDS011;8478;49.208;8.806;2023-06-19T08:54:26;7.03;;;6.53;;
2049;SDS011;8478;49.208;8.806;2023-06-19T08:56:52;7.20;;;6.70;;
2049;SDS011;8478;49.208;8.806;2023-06-19T08:59:19;6.87;;;6.37;;
2049;SDS011;8478;49.208;8.806;2023-06-19T09:01:49;6.87;;;6.47;;
2049;SDS011;8478;49.208;8.806;2023-06-19T09:04:17;7.53;;;7.00;;
2049;SDS011;8478;49.208;8.806;2023-06-19T09:06:48;6.33;;;5.93;;
2049;SDS011;8478;49.208;8.806;2023-06-19T09:09:21;7.27;;;6.80;;
2049;SDS011;8478;49.208;8.806;2023-06-19T09:17:02;7.77;;;7.13;;
2049;SDS011;8478;49.208;8.806;2023-06-19T09:19:29;6.60;;;6.20;;
2049;SDS011;8478;49.208;8.806;2023-06-19T09:21:59;8.27;;;7.67;;
2049;SDS011;8478;49.208;8.806;2023-06-19T09:24:33;7.40;;;6.90;;
2049;SDS011;8478;49.208;8.806;2023-06-19T09:27:11;7.63;;;7.13;;
2049;SDS011;8478;49.208;8.806;2023-06-19T09:29:42;7.97;;;7.40;;
2049;SDS011;8478;49.208;8.806;2023-06-19T09:32:22;7.50;;;7.07;;
2049;SDS011;8478;49.208;8.806;2023-06-19T09:34:50;7.60;;;7.10;;
2049;SDS011;8478;49.208;8.806;2023-06-19T09:37:27;7.47;;;6.87;;
2049;SDS011;8478;49.208;8.806;2023-06-19T09:39:55;7.50;;;7.00;;
2049;SDS011;8478;49.208;8.806;2023-06-19T09:42:33;7.07;;;6.60;;
2049;SDS011;8478;49.208;8.806;2023-06-19T09:45:03;7.60;;;7.10;;
2049;SDS011;8478;49.208;8.806;2023-06-19T09:47:31;6.70;;;5.90;;
2049;SDS011;8478;49.208;8.806;2023-06-19T09:50:00;8.00;;;7.40;;
2049;SDS011;8478;49.208;8.806;2023-06-19T09:52:27;7.47;;;6.97;;
2049;SDS011;8478;49.208;8.806;2023-06-19T09:54:54;6.87;;;6.37;;
2049;SDS011;8478;49.208;8.806;2023-06-19T09:57:20;7.70;;;7.20;;
2049;SDS011;8478;49.208;8.806;2023-06-19T09:59:50;7.53;;;7.00;;
2049;SDS011;8478;49.208;8.806;2023-06-19T10:02:19;7.43;;;6.93;;
2049;SDS011;8478;49.208;8.806;2023-06-19T10:04:46;7.43;;;6.93;;
2049;SDS011;8478;49.208;8.806;2023-06-19T10:07:21;8.10;;;7.37;;
2049;SDS011;8478;49.208;8.806;2023-06-19T10:12:59;7.97;;;7.40;;
2049;SDS011;8478;49.208;8.806;2023-06-19T10:15:46;8.10;;;7.50;;
2049;SDS011;8478;49.208;8.806;2023-06-19T10:18:14;8.47;;;7.87;;
2049;SDS011;8478;49.208;8.806;2023-06-19T10:20:44;8.67;;;8.00;;
2049;SDS011;8478;49.208;8.806;2023-06-19T10:23:18;7.17;;;6.57;;
2049;SDS011;8478;49.208;8.806;2023-06-19T10:25:47;7.73;;;7.23;;
2049;SDS011;8478;49.208;8.806;2023-06-19T10:28:18;6.97;;;6.47;;
2049;SDS011;8478;49.208;8.806;2023-06-19T10:30:56;7.20;;;6.60;;
2049;SDS011;8478;49.208;8.806;2023-06-19T10:33:29;7.80;;;7.30;;
2049;SDS011;8478;49.208;8.806;2023-06-19T10:35:57;7.77;;;7.27;;
2049;SDS011;8478;49.208;8.806;2023-06-19T10:38:30;7.23;;;6.80;;
2049;SDS011;8478;49.208;8.806;2023-06-19T10:40:55;8.20;;;7.70;;
2049;SDS011;8478;49.208;8.806;2023-06-19T10:43:22;7.87;;;7.30;;
2049;SDS011;8478;49.208;8.806;2023-06-19T10:45:50;6.53;;;6.13;;
2049;SDS011;8478;49.208;8.806;2023-06-19T10:48:20;8.73;;;8.13;;
2049;SDS011;8478;49.208;8.806;2023-06-19T10:50:47;7.90;;;7.40;;
2049;SDS011;8478;49.208;8.806;2023-06-19T10:53:26;7.37;;;6.93;;
2049;SDS011;8478;49.208;8.806;2023-06-19T10:55:54;7.73;;;7.13;;
2049;SDS011;8478;49.208;8.806;2023-06-19T10:58:22;8.13;;;7.53;;
2049;SDS011;8478;49.208;8.806;2023-06-19T11:00:48;7.60;;;7.10;;
2049;SDS011;8478;49.208;8.806;2023-06-19T11:03:13;8.20;;;7.60;;
2049;SDS011;8478;49.208;8.806;2023-06-19T11:05:42;7.80;;;7.30;;
2049;SDS011;8478;49.208;8.806;2023-06-19T11:08:09;8.37;;;7.77;;
2049;SDS011;8478;49.208;8.806;2023-06-19T11:10:35;6.70;;;6.28;;
2049;SDS011;8478;49.208;8.806;2023-06-19T11:13:01;8.47;;;7.83;;
2049;SDS011;8478;49.208;8.806;2023-06-19T11:15:28;8.10;;;7.60;;
2049;SDS011;8478;49.208;8.806;2023-06-19T11:17:57;8.30;;;7.70;;
2049;SDS011;8478;49.208;8.806;2023-06-19T11:20:24;7.73;;;7.03;;
2049;SDS011;8478;49.208;8.806;2023-06-19T11:22:54;8.50;;;7.90;;
2049;SDS011;8478;49.208;8.806;2023-06-19T11:25:21;8.23;;;7.67;;
2049;SDS011;8478;49.208;8.806;2023-06-19T11:27:47;8.67;;;7.97;;
2049;SDS011;8478;49.208;8.806;2023-06-19T11:30:17;8.47;;;7.77;;
2049;SDS011;8478;49.208;8.806;2023-06-19T11:32:45;8.43;;;7.83;;
2049;SDS011;8478;49.208;8.806;2023-06-19T11:35:15;7.53;;;7.00;;
2049;SDS011;8478;49.208;8.806;2023-06-19T11:37:41;7.93;;;7.37;;
2049;SDS011;8478;49.208;8.806;2023-06-19T11:40:09;7.73;;;7.23;;
2049;SDS011;8478;49.208;8.806;2023-06-19T11:42:51;8.77;;;8.17;;
2049;SDS011;8478;49.208;8.806;2023-06-19T11:45:17;8.53;;;7.97;;
2049;SDS011;8478;49.208;8.806;2023-06-19T11:47:44;8.90;;;8.30;;
2049;SDS011;8478;49.208;8.806;2023-06-19T11:50:11;8.17;;;7.40;;
2049;SDS011;8478;49.208;8.806;2023-06-19T11:52:37;7.30;;;6.90;;
2049;SDS011;8478;49.208;8.806;2023-06-19T11:55:04;8.20;;;7.60;;
2049;SDS011;8478;49.208;8.806;2023-06-19T11:57:30;8.20;;;7.60;;
2049;SDS011;8478;49.208;8.806;2023-06-19T11:59:58;7.80;;;7.30;;
2049;SDS011;8478;49.208;8.806;2023-06-19T12:02:23;8.10;;;7.57;;
2049;SDS011;8478;49.208;8.806;2023-06-19T12:04:49;7.20;;;6.80;;
2049;SDS011;8478;49.208;8.806;2023-06-19T12:07:15;7.37;;;6.90;;
2049;SDS011;8478;49.208;8.806;2023-06-19T12:09:41;7.87;;;7.37;;
2049;SDS011;8478;49.208;8.806;2023-06-19T12:12:08;7.80;;;7.20;;
2049;SDS011;8478;49.208;8.806;2023-06-19T12:14:34;8.17;;;7.60;;
2049;SDS011;8478;49.208;8.806;2023-06-19T12:17:00;8.03;;;7.53;;
2049;SDS011;8478;49.208;8.806;2023-06-19T12:19:26;7.83;;;7.33;;
2049;SDS011;8478;49.208;8.806;2023-06-19T12:21:53;8.33;;;7.73;;
2049;SDS011;8478;49.208;8.806;2023-06-19T12:24:18;6.40;;;6.00;;
2049;SDS011;8478;49.208;8.806;2023-06-19T12:26:44;7.50;;;7.00;;
2049;SDS011;8478;49.208;8.806;2023-06-19T12:29:10;6.57;;;6.17;;
2049;SDS011;8478;49.208;8.806;2023-06-19T12:31:36;9.00;;;8.30;;
2049;SDS011;8478;49.208;8.806;2023-06-19T12:34:02;7.70;;;7.17;;
2049;SDS011;8478;49.208;8.806;2023-06-19T12:36:30;7.57;;;7.07;;
2049;SDS011;8478;49.208;8.806;2023-06-19T12:38:58;8.57;;;7.97;;
2049;SDS011;8478;49.208;8.806;2023-06-19T12:41:25;9.00;;;8.40;;
2049;SDS011;8478;49.208;8.806;2023-06-19T12:43:52;8.17;;;7.57;;
2049;SDS011;8478;49.208;8.806;2023-06-19T12:46:18;7.40;;;6.90;;
2049;SDS011;8478;49.208;8.806;2023-06-19T12:48:45;7.50;;;7.00;;
2049;SDS011;8478;49.208;8.806;2023-06-19T12:51:15;6.80;;;6.30;;
2049;SDS011;8478;49.208;8.806;2023-06-19T12:53:43;8.07;;;7.43;;
2049;SDS011;8478;49.208;8.806;2023-06-19T12:56:09;8.00;;;7.40;;
2049;SDS011;8478;49.208;8.806;2023-06-19T12:58:35;8.00;;;7.50;;
2049;SDS011;8478;49.208;8.806;2023-06-19T13:01:00;7.20;;;6.80;;
2049;SDS011;8478;49.208;8.806;2023-06-19T13:03:26;6.67;;;6.27;;
2049;SDS011;8478;49.208;8.806;2023-06-19T13:05:52;6.20;;;5.80;;
2049;SDS011;8478;49.208;8.806;2023-06-19T13:08:18;5.70;;;5.40;;
2049;SDS011;8478;49.208;8.806;2023-06-19T13:10:44;6.13;;;5.73;;
2049;SDS011;8478;49.208;8.806;2023-06-19T13:13:11;6.33;;;5.90;;
2049;SDS011;8478;49.208;8.806;2023-06-19T13:15:38;6.43;;;6.03;;
2049;SDS011;8478;49.208;8.806;2023-06-19T13:18:04;6.73;;;6.33;;
2049;SDS011;8478;49.208;8.806;2023-06-19T13:20:30;7.13;;;6.73;;
2049;SDS011;8478;49.208;8.806;2023-06-19T13:22:57;7.40;;;6.90;;
2049;SDS011;8478;49.208;8.806;2023-06-19T13:25:23;7.10;;;6.60;;
2049;SDS011;8478;49.208;8.806;2023-06-19T13:27:49;5.70;;;5.30;;
2049;SDS011;8478;49.208;8.806;2023-06-19T13:30:15;7.03;;;6.53;;
2049;SDS011;8478;49.208;8.806;2023-06-19T13:32:42;6.70;;;6.30;;
2049;SDS011;8478;49.208;8.806;2023-06-19T13:35:08;6.97;;;6.57;;
2049;SDS011;8478;49.208;8.806;2023-06-19T13:37:37;6.33;;;5.83;;
2049;SDS011;8478;49.208;8.806;2023-06-19T13:40:07;6.60;;;6.20;;
2049;SDS011;8478;49.208;8.806;2023-06-19T13:42:33;7.77;;;7.27;;
2049;SDS011;8478;49.208;8.806;2023-06-19T13:45:04;7.20;;;6.70;;
2049;SDS011;8478;49.208;8.806;2023-06-19T13:47:30;5.57;;;5.18;;
2049;SDS011;8478;49.208;8.806;2023-06-19T13:49:57;6.10;;;5.70;;
2049;SDS011;8478;49.208;8.806;2023-06-19T13:52:23;5.80;;;5.50;;
2049;SDS011;8478;49.208;8.806;2023-06-19T13:54:49;5.57;;;5.27;;
2049;SDS011;8478;49.208;8.806;2023-06-19T13:57:16;6.87;;;6.43;;
2049;SDS011;8478;49.208;8.806;2023-06-19T13:59:42;6.57;;;6.17;;
2049;SDS011;8478;49.208;8.806;2023-06-19T14:02:08;5.70;;;5.33;;
2049;SDS011;8478;49.208;8.806;2023-06-19T14:04:35;6.13;;;5.73;;
2049;SDS011;8478;49.208;8.806;2023-06-19T14:07:02;4.90;;;4.60;;
2049;SDS011;8478;49.208;8.806;2023-06-19T14:09:28;6.17;;;5.77;;
2049;SDS011;8478;49.208;8.806;2023-06-19T14:11:54;6.97;;;6.47;;
2049;SDS011;8478;49.208;8.806;2023-06-19T14:14:20;5.63;;;5.33;;
2049;SDS011;8478;49.208;8.806;2023-06-19T14:16:47;5.80;;;5.40;;
2049;SDS011;8478;49.208;8.806;2023-06-19T14:19:13;5.80;;;5.50;;
2049;SDS011;8478;49.208;8.806;2023-06-19T14:21:39;5.80;;;5.50;;
2049;SDS011;8478;49.208;8.806;2023-06-19T14:24:05;5.50;;;5.20;;
2049;SDS011;8478;49.208;8.806;2023-06-19T14:26:31;6.10;;;5.20;;
2049;SDS011;8478;49.208;8.806;2023-06-19T14:28:57;6.47;;;6.07;;
2049;SDS011;8478;49.208;8.806;2023-06-19T14:31:24;5.33;;;5.00;;
2049;SDS011;8478;49.208;8.806;2023-06-19T14:33:50;6.70;;;6.20;;
2049;SDS011;8478;49.208;8.806;2023-06-19T14:36:16;6.87;;;6.47;;
2049;SDS011;8478;49.208;8.806;2023-06-19T14:38:42;6.23;;;5.80;;
2049;SDS011;8478;49.208;8.806;2023-06-19T14:41:07;5.30;;;5.00;;
2049;SDS011;8478;49.208;8.806;2023-06-19T14:43:33;6.43;;;6.03;;
2049;SDS011;8478;49.208;8.806;2023-06-19T14:46:00;6.70;;;6.23;;
2049;SDS011;8478;49.208;8.806;2023-06-19T14:48:28;6.37;;;5.97;;
2049;SDS011;8478;49.208;8.806;2023-06-19T14:50:55;5.90;;;5.50;;
2049;SDS011;8478;49.208;8.806;2023-06-19T14:53:21;6.50;;;6.10;;
2049;SDS011;8478;49.208;8.806;2023-06-19T14:55:46;6.17;;;5.87;;
2049;SDS011;8478;49.208;8.806;2023-06-19T14:58:13;6.83;;;6.43;;
2049;SDS011;8478;49.208;8.806;2023-06-19T15:00:39;5.57;;;5.27;;
2049;SDS011;8478;49.208;8.806;2023-06-19T15:03:06;5.80;;;5.30;;
2049;SDS011;8478;49.208;8.806;2023-06-19T15:05:32;6.17;;;5.77;;
2049;SDS011;8478;49.208;8.806;2023-06-19T15:07:58;6.20;;;5.70;;
2049;SDS011;8478;49.208;8.806;2023-06-19T15:10:25;5.67;;;5.27;;
2049;SDS011;8478;49.208;8.806;2023-06-19T15:12:52;7.00;;;6.50;;
2049;SDS011;8478;49.208;8.806;2023-06-19T15:15:17;5.40;;;5.10;;
2049;SDS011;8478;49.208;8.806;2023-06-19T15:17:43;6.50;;;6.10;;
2049;SDS011;8478;49.208;8.806;2023-06-19T15:20:09;6.57;;;6.17;;
2049;SDS011;8478;49.208;8.806;2023-06-19T15:22:35;6.83;;;6.37;;
2049;SDS011;8478;49.208;8.806;2023-06-19T15:25:02;7.40;;;6.90;;